AirNav   Everest Fuels
 
 527 users online  

S23 Ione Municipal Airport
Ione, Washington, USA

GOING TO IONE?


FAA INFORMATION EFFECTIVE 16 JULY 2020

Location

FAA Identifier: S23
Lat/Long: 48-42-30.3800N 117-24-47.2700W
48-42.506333N 117-24.787833W
48.7084389,-117.4131306
(estimated)
Elevation: 2109.5 ft. / 643 m (estimated)
Variation: 20E (1985)
From city: 2 miles S of IONE, WA
Time zone: UTC -7 (UTC -8 during Standard Time)
Zip code: 99139

Airport Operations

Airport use: Open to the public
Activation date: 08/1950
Control tower: no
ARTCC: SEATTLE CENTER
FSS: SEATTLE FLIGHT SERVICE STATION
NOTAMs facility: SEA (NOTAM-D service available)
Attendance: UNATNDD
Wind indicator: lighted
Segmented circle: no
Lights: SS-SR
Beacon: white-green (lighted land airport)
Operates sunset to sunrise.

Airport Communications

CTAF: 122.9

Nearby radio navigation aids

NDB name  Hdg/Dist  Freq  Var  ID
IONEat field37921EION .. --- -.

Airport Services

Parking: tiedowns
Airframe service: NONE
Powerplant service: NONE
Bottled oxygen: NONE
Bulk oxygen: NONE

Runway Information

Runway 15/33

Dimensions: 3643 x 45 ft. / 1110 x 14 m
Surface: asphalt, in good condition
Runway edge lights: medium intensity
Runway edge markings: RWY 15/33 MARKINGS ARE FADED.
RUNWAY 15  RUNWAY 33
Latitude: 48-42.798500N48-42.214167N
Longitude: 117-24.887500W117-24.688167W
Elevation: 2109.5 ft.2106.2 ft.
Traffic pattern: leftleft
Displaced threshold: 222 ft.no
Declared distances: TORA:3421 TODA:3421 ASDA:3421 LDA:3421TORA:3644 TODA:3644 ASDA:3644 LDA:3421
Markings: basic, in poor conditionbasic, in poor condition
Obstructions: 8 ft. fence, 210 ft. from runway, 1:1 slope to clearnone
RWY 33 HAS BRUSH 9 FT HIGH 134 FT FROM RWY END AND 46 FT RIGHT.

Helipad H1

Dimensions: 60 x 60 ft. / 18 x 18 m
Surface: concrete, in good condition
Runway edge lights: medium intensity
Runway edge markings: H1 MARKINGS ARE FADED.
Traffic pattern: leftleft
Markings: basic, in poor condition

Airport Ownership and Management from official FAA records

Ownership: Publicly-owned
Owner: CITY OF IONE
PO BOX 498
IONE, WA 99139
Phone 509-442-3611
Manager: JOHN REDINGER
PO BOX 498
IONE, WA 99139
Phone 509-442-3416

Airport Operational Statistics

Aircraft based on the field: 3
Single engine airplanes: 3
    
Aircraft operations: avg 52/week *
74% transient general aviation
26% local general aviation
* for 12-month period ending 31 December 2017

Additional Remarks

WILDLIFE INVOF RY.
ARPT USED FOR SEASONAL WILDLAND FIRE SPT
FOR CD CTC SEATTLE ARTCC AT 253-351-3694.

Instrument Procedures

There are no published instrument procedures at S23.

Some nearby airports with instrument procedures:

KSZT - Sandpoint Airport (42 nm SE)
65S - Boundary County Airport (44 nm E)
KDEW - Deer Park Airport (44 nm S)
KCOE - Coeur d'Alene Airport - Pappy Boyington Field (61 nm SE)
KSFF - Felts Field Airport (62 nm S)
 
Loc | Ops | Rwys | IFR | FBO | Links
Com | Nav | Svcs | Stats | Notes
Area around S23 (Ione Municipal Airport)
 
Road maps at: MapQuest Bing Google
 
Aerial photo
WARNING: Photo may not be current or correct
Aerial photo of S23 (Ione Municipal Airport)
Photo taken 13-Sep-2009

Do you have a better or more recent aerial photo of Ione Municipal Airport that you would like to share? If so, please send us your photo.

 
Sectional chart

 
Airport distance calculator
Flying to Ione Municipal Airport? Find the distance to fly.

From to S23

Sunrise and sunset
Times for 11-Aug-2020
 Local
(UTC-7)
 Zulu
(UTC)
Morning civil twilight05:0412:04
Sunrise05:4012:40
Sunset20:1003:10
Evening civil twilight20:4503:45

Current date and time
Zulu (UTC)  12-Aug-2020 05:26:20
Local (UTC-7)  11-Aug-2020 22:26:20
 
METAR
CYCG 
35nm N 
120100Z 16009KT 15SM SCT080 BKN170 OVC220 29/07 A2963 RMK CU3AC3CI1 LAST STFD OBS/NEXT 121500Z SLP028 DENSITY ALT 4000FT
KSZT 
42nm SE 
120515Z AUTO 00000KT 10SM CLR 15/07 A2971 RMK AO2
CWJR 
42nm NE 
120500Z AUTO 12002KT 21/07 RMK AO1 SLP042 T02050068 56002
K65S 
44nm E 
120510Z AUTO 11003KT 10SM CLR 22/03 A2970 RMK AO2
KDEW 
45nm S 
120453Z AUTO 20008KT 10SM CLR 21/01 A2972 RMK AO2 SLP052 T02060006
CWNM 
48nm N 
120500Z AUTO 00000KT 20/11 RMK AO1 SLP025 T01980110 55002
TAF
CYCG 
35nm N 
120207Z 1201/1204 FCST CNCLD DUE NO OBS RMK NXT FCST WILL BE ISSUED AT 121445Z
NOTAMs
Click for the latest NOTAMs
NOTAMs are issued by the DoD/FAA and will open in a separate window not controlled by AirNav.

 

 
 

Would you like to see your business listed on this page?

 If your business provides an interesting product or service to pilots, flight crews, aircraft, or users of the Ione Municipal Airport, you should consider listing it here.  To start the listing process, click on the button below
 
Add a business
 

Other Pages about Ione Municipal Airport

Update a link
 
Copyright © AirNav, LLC. All rights reserved. Privacy Policy  Contact